sensor_id;sensor_type;location;lat;lon;timestamp;pressure;altitude;pressure_sealevel;temperature;humidity
38718;BME280;24468;52.128;9.278;2023-04-25T00:00:44;99856.72;;;7.54;100.00
38718;BME280;24468;52.128;9.278;2023-04-25T00:03:09;99861.25;;;7.73;100.00
38718;BME280;24468;52.128;9.278;2023-04-25T00:05:35;99873.91;;;7.71;100.00
38718;BME280;24468;52.128;9.278;2023-04-25T00:08:03;99860.00;;;7.82;100.00
38718;BME280;24468;52.128;9.278;2023-04-25T00:10:28;99855.84;;;7.74;100.00
38718;BME280;24468;52.128;9.278;2023-04-25T00:12:54;99859.66;;;7.69;100.00
38718;BME280;24468;52.128;9.278;2023-04-25T00:15:20;99867.91;;;7.44;100.00
38718;BME280;24468;52.128;9.278;2023-04-25T00:17:45;99864.22;;;7.46;100.00
38718;BME280;24468;52.128;9.278;2023-04-25T00:20:11;99875.13;;;7.62;100.00
38718;BME280;24468;52.128;9.278;2023-04-25T00:22:37;99867.03;;;7.43;100.00
38718;BME280;24468;52.128;9.278;2023-04-25T00:25:06;99871.59;;;7.41;100.00
38718;BME280;24468;52.128;9.278;2023-04-25T00:27:33;99862.44;;;7.45;100.00
38718;BME280;24468;52.128;9.278;2023-04-25T00:29:58;99857.78;;;7.71;100.00
38718;BME280;24468;52.128;9.278;2023-04-25T00:32:24;99855.41;;;7.43;100.00
38718;BME280;24468;52.128;9.278;2023-04-25T00:34:49;99855.94;;;7.51;100.00
38718;BME280;24468;52.128;9.278;2023-04-25T00:37:15;99852.38;;;7.50;100.00
38718;BME280;24468;52.128;9.278;2023-04-25T00:39:41;99851.47;;;7.51;100.00
38718;BME280;24468;52.128;9.278;2023-04-25T00:42:07;99852.38;;;7.50;100.00
38718;BME280;24468;52.128;9.278;2023-04-25T00:44:33;99866.75;;;7.49;100.00
38718;BME280;24468;52.128;9.278;2023-04-25T00:47:02;99852.72;;;7.43;100.00
38718;BME280;24468;52.128;9.278;2023-04-25T00:49:27;99860.66;;;7.24;100.00
38718;BME280;24468;52.128;9.278;2023-04-25T00:51:53;99856.94;;;7.28;100.00
38718;BME280;24468;52.128;9.278;2023-04-25T00:54:20;99858.78;;;7.26;100.00
38718;BME280;24468;52.128;9.278;2023-04-25T00:56:45;99851.28;;;7.34;100.00
38718;BME280;24468;52.128;9.278;2023-04-25T00:59:11;99848.16;;;7.45;100.00
38718;BME280;24468;52.128;9.278;2023-04-25T01:01:38;99858.16;;;7.62;100.00
38718;BME280;24468;52.128;9.278;2023-04-25T01:04:04;99849.56;;;7.53;100.00
38718;BME280;24468;52.128;9.278;2023-04-25T01:06:30;99854.72;;;7.38;100.00
38718;BME280;24468;52.128;9.278;2023-04-25T01:08:57;99842.50;;;7.30;100.00
38718;BME280;24468;52.128;9.278;2023-04-25T01:11:23;99842.06;;;7.62;100.00
38718;BME280;24468;52.128;9.278;2023-04-25T01:13:48;99845.69;;;7.81;100.00
38718;BME280;24468;52.128;9.278;2023-04-25T01:16:14;99847.38;;;7.63;100.00
38718;BME280;24468;52.128;9.278;2023-04-25T01:18:40;99850.78;;;7.67;100.00
38718;BME280;24468;52.128;9.278;2023-04-25T01:21:08;99854.00;;;7.75;100.00
38718;BME280;24468;52.128;9.278;2023-04-25T01:23:35;99845.16;;;7.73;100.00
38718;BME280;24468;52.128;9.278;2023-04-25T01:26:01;99839.75;;;7.32;100.00
38718;BME280;24468;52.128;9.278;2023-04-25T01:28:28;99848.09;;;7.46;100.00
38718;BME280;24468;52.128;9.278;2023-04-25T01:30:54;99851.28;;;7.13;100.00
38718;BME280;24468;52.128;9.278;2023-04-25T01:33:21;99847.47;;;6.97;100.00
38718;BME280;24468;52.128;9.278;2023-04-25T01:35:47;99854.69;;;7.17;100.00
38718;BME280;24468;52.128;9.278;2023-04-25T01:38:13;99854.47;;;7.44;100.00
38718;BME280;24468;52.128;9.278;2023-04-25T01:40:40;99849.09;;;7.44;100.00
38718;BME280;24468;52.128;9.278;2023-04-25T01:43:07;99846.25;;;7.04;100.00
38718;BME280;24468;52.128;9.278;2023-04-25T01:45:37;99857.06;;;7.25;100.00
38718;BME280;24468;52.128;9.278;2023-04-25T01:48:10;99845.94;;;7.12;100.00
38718;BME280;24468;52.128;9.278;2023-04-25T01:50:38;99854.94;;;7.11;100.00
38718;BME280;24468;52.128;9.278;2023-04-25T01:53:04;99852.50;;;7.27;100.00
38718;BME280;24468;52.128;9.278;2023-04-25T01:55:30;99854.28;;;7.26;100.00
38718;BME280;24468;52.128;9.278;2023-04-25T01:57:56;99854.31;;;7.04;100.00
38718;BME280;24468;52.128;9.278;2023-04-25T02:00:22;99868.78;;;7.00;100.00
38718;BME280;24468;52.128;9.278;2023-04-25T02:02:48;99875.72;;;7.28;100.00
38718;BME280;24468;52.128;9.278;2023-04-25T02:05:16;99875.47;;;7.12;100.00
38718;BME280;24468;52.128;9.278;2023-04-25T02:07:42;99875.06;;;7.21;100.00
38718;BME280;24468;52.128;9.278;2023-04-25T02:10:08;99880.44;;;6.99;100.00
38718;BME280;24468;52.128;9.278;2023-04-25T02:12:35;99886.00;;;6.95;100.00
38718;BME280;24468;52.128;9.278;2023-04-25T02:15:01;99878.66;;;7.00;100.00
38718;BME280;24468;52.128;9.278;2023-04-25T02:17:26;99880.97;;;7.09;100.00
38718;BME280;24468;52.128;9.278;2023-04-25T02:19:52;99889.69;;;7.36;100.00
38718;BME280;24468;52.128;9.278;2023-04-25T02:22:17;99881.69;;;7.12;100.00
38718;BME280;24468;52.128;9.278;2023-04-25T02:24:43;99891.16;;;7.21;100.00
38718;BME280;24468;52.128;9.278;2023-04-25T02:27:08;99892.91;;;7.44;100.00
38718;BME280;24468;52.128;9.278;2023-04-25T02:29:34;99896.97;;;7.75;100.00
38718;BME280;24468;52.128;9.278;2023-04-25T02:32:00;99894.69;;;7.66;100.00
38718;BME280;24468;52.128;9.278;2023-04-25T02:34:25;99927.16;;;6.94;100.00
38718;BME280;24468;52.128;9.278;2023-04-25T02:36:51;99929.69;;;6.51;100.00
38718;BME280;24468;52.128;9.278;2023-04-25T02:39:17;99934.53;;;6.16;100.00
38718;BME280;24468;52.128;9.278;2023-04-25T02:41:42;99923.16;;;6.35;100.00
38718;BME280;24468;52.128;9.278;2023-04-25T02:44:08;99918.78;;;6.32;100.00
38718;BME280;24468;52.128;9.278;2023-04-25T02:46:33;99923.63;;;6.46;100.00
38718;BME280;24468;52.128;9.278;2023-04-25T02:48:59;99932.13;;;6.81;100.00
38718;BME280;24468;52.128;9.278;2023-04-25T02:51:25;99916.06;;;6.81;100.00
38718;BME280;24468;52.128;9.278;2023-04-25T02:53:51;99924.56;;;6.68;100.00
38718;BME280;24468;52.128;9.278;2023-04-25T02:56:17;99917.63;;;6.86;100.00
38718;BME280;24468;52.128;9.278;2023-04-25T02:58:42;99916.00;;;7.04;100.00
38718;BME280;24468;52.128;9.278;2023-04-25T03:01:08;99922.38;;;7.24;100.00
38718;BME280;24468;52.128;9.278;2023-04-25T03:03:33;99914.66;;;7.16;100.00
38718;BME280;24468;52.128;9.278;2023-04-25T03:05:59;99929.84;;;7.16;100.00
38718;BME280;24468;52.128;9.278;2023-04-25T03:08:24;99922.75;;;7.15;100.00
38718;BME280;24468;52.128;9.278;2023-04-25T03:10:52;99929.97;;;7.12;100.00
38718;BME280;24468;52.128;9.278;2023-04-25T03:13:20;99927.22;;;6.92;100.00
38718;BME280;24468;52.128;9.278;2023-04-25T03:15:46;99928.50;;;7.05;100.00
38718;BME280;24468;52.128;9.278;2023-04-25T03:18:11;99928.78;;;6.98;100.00
38718;BME280;24468;52.128;9.278;2023-04-25T03:20:37;99932.09;;;7.26;100.00
38718;BME280;24468;52.128;9.278;2023-04-25T03:23:04;99938.16;;;7.09;100.00
38718;BME280;24468;52.128;9.278;2023-04-25T03:25:30;99931.09;;;7.07;100.00
38718;BME280;24468;52.128;9.278;2023-04-25T03:27:55;99931.41;;;7.21;100.00
38718;BME280;24468;52.128;9.278;2023-04-25T03:30:21;99934.88;;;7.25;100.00
38718;BME280;24468;52.128;9.278;2023-04-25T03:32:46;99931.44;;;7.43;100.00
38718;BME280;24468;52.128;9.278;2023-04-25T03:35:12;99930.63;;;7.41;100.00
38718;BME280;24468;52.128;9.278;2023-04-25T03:37:37;99930.63;;;7.41;100.00
38718;BME280;24468;52.128;9.278;2023-04-25T03:40:03;99938.09;;;7.33;100.00
38718;BME280;24468;52.128;9.278;2023-04-25T03:42:29;99931.88;;;7.54;100.00
38718;BME280;24468;52.128;9.278;2023-04-25T03:44:55;99944.63;;;7.70;100.00
38718;BME280;24468;52.128;9.278;2023-04-25T03:47:20;99936.09;;;7.60;100.00
38718;BME280;24468;52.128;9.278;2023-04-25T03:49:46;99943.25;;;7.60;100.00
38718;BME280;24468;52.128;9.278;2023-04-25T03:52:11;99949.31;;;7.65;100.00
38718;BME280;24468;52.128;9.278;2023-04-25T03:54:37;99955.63;;;7.64;100.00
38718;BME280;24468;52.128;9.278;2023-04-25T03:57:02;99958.72;;;7.75;100.00
38718;BME280;24468;52.128;9.278;2023-04-25T03:59:28;99951.69;;;7.72;100.00
38718;BME280;24468;52.128;9.278;2023-04-25T04:01:54;99957.75;;;7.55;100.00
38718;BME280;24468;52.128;9.278;2023-04-25T04:04:19;99964.00;;;7.56;100.00
38718;BME280;24468;52.128;9.278;2023-04-25T04:06:45;99965.31;;;7.46;100.00
38718;BME280;24468;52.128;9.278;2023-04-25T04:09:11;99967.81;;;7.50;100.00
38718;BME280;24468;52.128;9.278;2023-04-25T04:11:38;99964.69;;;7.39;100.00
38718;BME280;24468;52.128;9.278;2023-04-25T04:14:07;99966.50;;;7.17;100.00
38718;BME280;24468;52.128;9.278;2023-04-25T04:16:33;99972.09;;;6.87;100.00
38718;BME280;24468;52.128;9.278;2023-04-25T04:18:59;99981.81;;;6.66;100.00
38718;BME280;24468;52.128;9.278;2023-04-25T04:21:24;99985.44;;;6.65;100.00
38718;BME280;24468;52.128;9.278;2023-04-25T04:23:51;99991.16;;;6.79;100.00
38718;BME280;24468;52.128;9.278;2023-04-25T04:26:17;99995.13;;;6.93;100.00
38718;BME280;24468;52.128;9.278;2023-04-25T04:28:43;99999.56;;;6.94;100.00
38718;BME280;24468;52.128;9.278;2023-04-25T04:31:12;99993.91;;;6.78;100.00
38718;BME280;24468;52.128;9.278;2023-04-25T04:33:38;99996.41;;;6.82;100.00
38718;BME280;24468;52.128;9.278;2023-04-25T04:36:03;99999.22;;;6.56;100.00
38718;BME280;24468;52.128;9.278;2023-04-25T04:38:30;100003.16;;;6.69;100.00
38718;BME280;24468;52.128;9.278;2023-04-25T04:40:56;100003.75;;;6.54;100.00
38718;BME280;24468;52.128;9.278;2023-04-25T04:43:21;100000.66;;;6.88;100.00
38718;BME280;24468;52.128;9.278;2023-04-25T04:45:48;100001.13;;;6.99;100.00
38718;BME280;24468;52.128;9.278;2023-04-25T04:48:15;100012.25;;;7.12;100.00
38718;BME280;24468;52.128;9.278;2023-04-25T04:50:43;100004.97;;;7.16;100.00
38718;BME280;24468;52.128;9.278;2023-04-25T04:53:10;100012.47;;;7.29;100.00
38718;BME280;24468;52.128;9.278;2023-04-25T04:55:37;100012.81;;;7.44;100.00
38718;BME280;24468;52.128;9.278;2023-04-25T04:58:02;100016.97;;;7.29;100.00
38718;BME280;24468;52.128;9.278;2023-04-25T05:00:28;100020.34;;;7.34;100.00
38718;BME280;24468;52.128;9.278;2023-04-25T05:02:55;100022.00;;;7.15;100.00
38718;BME280;24468;52.128;9.278;2023-04-25T05:05:21;100024.56;;;7.18;100.00
38718;BME280;24468;52.128;9.278;2023-04-25T05:07:47;100023.84;;;7.36;100.00
38718;BME280;24468;52.128;9.278;2023-04-25T05:10:13;100036.63;;;7.29;100.00
38718;BME280;24468;52.128;9.278;2023-04-25T05:12:38;100034.97;;;7.27;100.00
38718;BME280;24468;52.128;9.278;2023-04-25T05:15:04;100037.50;;;7.06;100.00
38718;BME280;24468;52.128;9.278;2023-04-25T05:17:30;100043.72;;;7.08;100.00
38718;BME280;24468;52.128;9.278;2023-04-25T05:19:56;100041.78;;;7.35;100.00
38718;BME280;24468;52.128;9.278;2023-04-25T05:22:22;100058.50;;;7.42;100.00
38718;BME280;24468;52.128;9.278;2023-04-25T05:24:48;100054.09;;;7.63;100.00
38718;BME280;24468;52.128;9.278;2023-04-25T05:27:17;100066.28;;;7.03;100.00
38718;BME280;24468;52.128;9.278;2023-04-25T05:29:42;100067.13;;;7.03;100.00
38718;BME280;24468;52.128;9.278;2023-04-25T05:32:08;100063.97;;;7.39;100.00
38718;BME280;24468;52.128;9.278;2023-04-25T05:34:34;100062.19;;;7.16;100.00
38718;BME280;24468;52.128;9.278;2023-04-25T05:37:00;100072.47;;;7.05;100.00
38718;BME280;24468;52.128;9.278;2023-04-25T05:39:26;100077.75;;;6.83;100.00
38718;BME280;24468;52.128;9.278;2023-04-25T05:41:52;100083.00;;;6.86;100.00
38718;BME280;24468;52.128;9.278;2023-04-25T05:44:17;100072.03;;;6.92;100.00
38718;BME280;24468;52.128;9.278;2023-04-25T05:46:43;100071.50;;;7.29;100.00
38718;BME280;24468;52.128;9.278;2023-04-25T05:49:08;100077.88;;;7.27;100.00
38718;BME280;24468;52.128;9.278;2023-04-25T05:51:34;100087.59;;;7.29;100.00
38718;BME280;24468;52.128;9.278;2023-04-25T05:53:59;100090.38;;;7.28;100.00
38718;BME280;24468;52.128;9.278;2023-04-25T05:56:25;100097.00;;;7.18;100.00
38718;BME280;24468;52.128;9.278;2023-04-25T05:58:51;100092.13;;;7.74;100.00
38718;BME280;24468;52.128;9.278;2023-04-25T06:01:16;100097.75;;;7.45;100.00
38718;BME280;24468;52.128;9.278;2023-04-25T06:03:42;100094.41;;;7.62;100.00
38718;BME280;24468;52.128;9.278;2023-04-25T06:06:09;100092.72;;;7.59;100.00
38718;BME280;24468;52.128;9.278;2023-04-25T06:08:35;100109.38;;;7.45;100.00
38718;BME280;24468;52.128;9.278;2023-04-25T06:11:00;100101.56;;;7.63;100.00
38718;BME280;24468;52.128;9.278;2023-04-25T06:13:26;100099.69;;;7.87;100.00
38718;BME280;24468;52.128;9.278;2023-04-25T06:15:51;100106.16;;;7.81;100.00
38718;BME280;24468;52.128;9.278;2023-04-25T06:18:17;100094.19;;;7.90;100.00
38718;BME280;24468;52.128;9.278;2023-04-25T06:20:42;100095.28;;;8.28;100.00
38718;BME280;24468;52.128;9.278;2023-04-25T06:23:08;100113.00;;;8.12;100.00
38718;BME280;24468;52.128;9.278;2023-04-25T06:25:33;100115.56;;;7.71;100.00
38718;BME280;24468;52.128;9.278;2023-04-25T06:27:59;100117.19;;;7.97;100.00
38718;BME280;24468;52.128;9.278;2023-04-25T06:30:25;100104.88;;;8.13;100.00
38718;BME280;24468;52.128;9.278;2023-04-25T06:32:52;100109.84;;;8.00;100.00
38718;BME280;24468;52.128;9.278;2023-04-25T06:35:18;100118.16;;;7.94;100.00
38718;BME280;24468;52.128;9.278;2023-04-25T06:37:44;100116.47;;;8.14;100.00
38718;BME280;24468;52.128;9.278;2023-04-25T06:40:10;100110.47;;;8.51;100.00
38718;BME280;24468;52.128;9.278;2023-04-25T06:42:36;100109.06;;;7.76;100.00
38718;BME280;24468;52.128;9.278;2023-04-25T06:45:02;100106.50;;;8.60;100.00
38718;BME280;24468;52.128;9.278;2023-04-25T06:47:28;100116.25;;;8.42;100.00
38718;BME280;24468;52.128;9.278;2023-04-25T06:49:55;100107.66;;;8.32;100.00
38718;BME280;24468;52.128;9.278;2023-04-25T06:52:21;100122.44;;;8.44;100.00
38718;BME280;24468;52.128;9.278;2023-04-25T06:54:46;100126.88;;;7.79;100.00
38718;BME280;24468;52.128;9.278;2023-04-25T06:57:12;100123.47;;;7.74;100.00
38718;BME280;24468;52.128;9.278;2023-04-25T06:59:38;100147.47;;;7.55;100.00
38718;BME280;24468;52.128;9.278;2023-04-25T07:02:03;100138.31;;;7.37;100.00
38718;BME280;24468;52.128;9.278;2023-04-25T07:04:29;100133.09;;;7.79;100.00
38718;BME280;24468;52.128;9.278;2023-04-25T07:06:56;100141.28;;;7.53;100.00
38718;BME280;24468;52.128;9.278;2023-04-25T07:09:21;100145.94;;;7.48;100.00
38718;BME280;24468;52.128;9.278;2023-04-25T07:11:47;100148.88;;;7.65;100.00
38718;BME280;24468;52.128;9.278;2023-04-25T07:14:13;100155.63;;;7.75;100.00
38718;BME280;24468;52.128;9.278;2023-04-25T07:16:38;100150.75;;;7.63;100.00
38718;BME280;24468;52.128;9.278;2023-04-25T07:19:04;100155.66;;;7.52;100.00
38718;BME280;24468;52.128;9.278;2023-04-25T07:21:29;100155.34;;;7.83;100.00
38718;BME280;24468;52.128;9.278;2023-04-25T07:23:56;100148.28;;;8.02;100.00
38718;BME280;24468;52.128;9.278;2023-04-25T07:26:21;100156.47;;;8.21;100.00
38718;BME280;24468;52.128;9.278;2023-04-25T07:28:47;100167.19;;;8.23;100.00
38718;BME280;24468;52.128;9.278;2023-04-25T07:31:16;100163.69;;;8.43;100.00
38718;BME280;24468;52.128;9.278;2023-04-25T07:33:44;100154.78;;;8.63;100.00
38718;BME280;24468;52.128;9.278;2023-04-25T07:36:10;100161.16;;;8.38;100.00
38718;BME280;24468;52.128;9.278;2023-04-25T07:38:36;100160.19;;;8.83;100.00
38718;BME280;24468;52.128;9.278;2023-04-25T07:41:01;100154.59;;;8.88;100.00
38718;BME280;24468;52.128;9.278;2023-04-25T07:43:27;100162.16;;;8.58;100.00
38718;BME280;24468;52.128;9.278;2023-04-25T07:45:52;100168.78;;;8.71;100.00
38718;BME280;24468;52.128;9.278;2023-04-25T07:48:18;100161.91;;;8.20;100.00
38718;BME280;24468;52.128;9.278;2023-04-25T07:50:44;100170.81;;;8.44;100.00
38718;BME280;24468;52.128;9.278;2023-04-25T07:53:10;100162.41;;;8.74;100.00
38718;BME280;24468;52.128;9.278;2023-04-25T07:55:36;100178.00;;;8.43;100.00
38718;BME280;24468;52.128;9.278;2023-04-25T07:58:08;100181.38;;;8.49;100.00
38718;BME280;24468;52.128;9.278;2023-04-25T08:00:34;100180.66;;;8.45;100.00
38718;BME280;24468;52.128;9.278;2023-04-25T08:03:00;100181.84;;;8.80;100.00
38718;BME280;24468;52.128;9.278;2023-04-25T08:05:25;100193.66;;;8.10;100.00
38718;BME280;24468;52.128;9.278;2023-04-25T08:07:51;100181.78;;;8.38;100.00
38718;BME280;24468;52.128;9.278;2023-04-25T08:10:17;100178.81;;;8.88;100.00
38718;BME280;24468;52.128;9.278;2023-04-25T08:12:42;100181.03;;;8.78;100.00
38718;BME280;24468;52.128;9.278;2023-04-25T08:15:08;100180.94;;;8.59;100.00
38718;BME280;24468;52.128;9.278;2023-04-25T08:17:34;100200.22;;;8.25;100.00
38718;BME280;24468;52.128;9.278;2023-04-25T08:20:00;100199.78;;;8.14;100.00
38718;BME280;24468;52.128;9.278;2023-04-25T08:22:26;100195.44;;;8.55;100.00
38718;BME280;24468;52.128;9.278;2023-04-25T08:24:51;100204.72;;;8.24;100.00
38718;BME280;24468;52.128;9.278;2023-04-25T08:27:18;100214.06;;;7.92;100.00
38718;BME280;24468;52.128;9.278;2023-04-25T08:29:43;100215.63;;;7.98;100.00
38718;BME280;24468;52.128;9.278;2023-04-25T08:32:09;100201.56;;;8.37;100.00
38718;BME280;24468;52.128;9.278;2023-04-25T08:34:35;100197.19;;;8.78;100.00
38718;BME280;24468;52.128;9.278;2023-04-25T08:37:02;100203.69;;;8.73;100.00
38718;BME280;24468;52.128;9.278;2023-04-25T08:39:29;100200.81;;;8.98;100.00
38718;BME280;24468;52.128;9.278;2023-04-25T08:41:56;100202.97;;;8.89;100.00
38718;BME280;24468;52.128;9.278;2023-04-25T08:44:22;100213.66;;;8.49;100.00
38718;BME280;24468;52.128;9.278;2023-04-25T08:46:49;100213.03;;;8.84;100.00
38718;BME280;24468;52.128;9.278;2023-04-25T08:49:17;100220.53;;;8.56;100.00
38718;BME280;24468;52.128;9.278;2023-04-25T08:51:47;100221.06;;;9.06;100.00
38718;BME280;24468;52.128;9.278;2023-04-25T08:54:14;100227.25;;;9.49;100.00
38718;BME280;24468;52.128;9.278;2023-04-25T08:56:45;100237.81;;;8.93;98.59
38718;BME280;24468;52.128;9.278;2023-04-25T08:59:13;100232.75;;;8.85;96.61
38718;BME280;24468;52.128;9.278;2023-04-25T09:01:39;100235.03;;;8.52;98.54
38718;BME280;24468;52.128;9.278;2023-04-25T09:04:04;100241.03;;;7.89;100.00
38718;BME280;24468;52.128;9.278;2023-04-25T09:06:31;100263.00;;;7.77;100.00
38718;BME280;24468;52.128;9.278;2023-04-25T09:09:05;100259.50;;;7.98;100.00
38718;BME280;24468;52.128;9.278;2023-04-25T09:11:36;100269.03;;;8.53;98.95
38718;BME280;24468;52.128;9.278;2023-04-25T09:14:22;100263.03;;;8.22;100.00
38718;BME280;24468;52.128;9.278;2023-04-25T09:21:57;100265.16;;;8.36;100.00
38718;BME280;24468;52.128;9.278;2023-04-25T09:24:38;100280.06;;;8.23;100.00
38718;BME280;24468;52.128;9.278;2023-04-25T09:27:06;100274.03;;;8.16;100.00
38718;BME280;24468;52.128;9.278;2023-04-25T09:29:34;100286.09;;;8.28;100.00
38718;BME280;24468;52.128;9.278;2023-04-25T09:32:23;100281.47;;;8.77;97.59
38718;BME280;24468;52.128;9.278;2023-04-25T09:34:59;100289.97;;;8.88;95.81
38718;BME280;24468;52.128;9.278;2023-04-25T09:37:28;100278.34;;;8.88;95.87
38718;BME280;24468;52.128;9.278;2023-04-25T09:39:56;100271.09;;;8.90;91.34
38718;BME280;24468;52.128;9.278;2023-04-25T09:42:25;100285.97;;;8.55;89.81
38718;BME280;24468;52.128;9.278;2023-04-25T09:44:53;100291.16;;;9.03;86.20
38718;BME280;24468;52.128;9.278;2023-04-25T09:47:19;100291.09;;;8.83;92.34
38718;BME280;24468;52.128;9.278;2023-04-25T09:49:47;100290.44;;;9.00;92.14
38718;BME280;24468;52.128;9.278;2023-04-25T09:52:16;100302.56;;;8.66;88.33
38718;BME280;24468;52.128;9.278;2023-04-25T09:54:42;100301.63;;;9.11;88.61
38718;BME280;24468;52.128;9.278;2023-04-25T09:57:16;100311.50;;;8.88;88.30
38718;BME280;24468;52.128;9.278;2023-04-25T09:59:47;100299.16;;;9.47;87.37
38718;BME280;24468;52.128;9.278;2023-04-25T10:02:16;100299.22;;;10.06;85.67
38718;BME280;24468;52.128;9.278;2023-04-25T10:04:46;100306.31;;;9.26;80.91
38718;BME280;24468;52.128;9.278;2023-04-25T10:07:13;100303.50;;;9.09;81.74
38718;BME280;24468;52.128;9.278;2023-04-25T10:09:40;100309.28;;;9.20;80.04
38718;BME280;24468;52.128;9.278;2023-04-25T10:12:07;100320.34;;;8.92;83.79
38718;BME280;24468;52.128;9.278;2023-04-25T10:14:33;100318.75;;;9.08;84.99
38718;BME280;24468;52.128;9.278;2023-04-25T10:17:00;100312.41;;;8.89;90.44
38718;BME280;24468;52.128;9.278;2023-04-25T10:19:27;100317.31;;;9.22;93.36
38718;BME280;24468;52.128;9.278;2023-04-25T10:22:07;100311.66;;;9.48;92.10
38718;BME280;24468;52.128;9.278;2023-04-25T10:24:35;100330.28;;;8.90;99.26
38718;BME280;24468;52.128;9.278;2023-04-25T10:27:02;100312.72;;;9.24;100.00
38718;BME280;24468;52.128;9.278;2023-04-25T10:29:28;100324.84;;;9.34;91.20
38718;BME280;24468;52.128;9.278;2023-04-25T10:31:54;100320.88;;;9.22;84.41
38718;BME280;24468;52.128;9.278;2023-04-25T10:34:37;100317.41;;;9.19;77.95
38718;BME280;24468;52.128;9.278;2023-04-25T10:37:04;100310.56;;;9.93;75.42
38718;BME280;24468;52.128;9.278;2023-04-25T10:39:29;100328.91;;;9.65;66.57
38718;BME280;24468;52.128;9.278;2023-04-25T10:41:57;100329.75;;;10.06;65.94
38718;BME280;24468;52.128;9.278;2023-04-25T10:44:27;100313.69;;;10.23;65.81
38718;BME280;24468;52.128;9.278;2023-04-25T10:46:56;100316.84;;;10.33;61.77
38718;BME280;24468;52.128;9.278;2023-04-25T10:49:48;100307.88;;;11.07;71.92
38718;BME280;24468;52.128;9.278;2023-04-25T10:52:26;100310.88;;;11.01;67.13
38718;BME280;24468;52.128;9.278;2023-04-25T10:54:55;100311.97;;;10.97;64.63
38718;BME280;24468;52.128;9.278;2023-04-25T10:57:40;100296.47;;;10.83;67.76
38718;BME280;24468;52.128;9.278;2023-04-25T11:05:09;100308.56;;;11.10;62.64
38718;BME280;24468;52.128;9.278;2023-04-25T11:07:51;100311.41;;;11.61;61.41
38718;BME280;24468;52.128;9.278;2023-04-25T11:10:18;100319.84;;;11.01;58.38
38718;BME280;24468;52.128;9.278;2023-04-25T11:12:45;100315.59;;;11.32;59.07
38718;BME280;24468;52.128;9.278;2023-04-25T11:15:12;100310.06;;;10.62;57.61
38718;BME280;24468;52.128;9.278;2023-04-25T11:17:38;100309.41;;;10.57;57.89
38718;BME280;24468;52.128;9.278;2023-04-25T11:20:07;100321.94;;;10.58;56.79
38718;BME280;24468;52.128;9.278;2023-04-25T11:22:38;100314.28;;;10.68;59.58
38718;BME280;24468;52.128;9.278;2023-04-25T11:25:08;100315.50;;;10.80;62.13
38718;BME280;24468;52.128;9.278;2023-04-25T11:27:34;100320.88;;;10.04;63.51
38718;BME280;24468;52.128;9.278;2023-04-25T11:30:15;100312.72;;;10.45;64.71
38718;BME280;24468;52.128;9.278;2023-04-25T11:32:42;100318.63;;;10.53;61.46
38718;BME280;24468;52.128;9.278;2023-04-25T11:35:09;100333.88;;;10.34;60.79
38718;BME280;24468;52.128;9.278;2023-04-25T11:37:35;100327.00;;;9.87;61.22
38718;BME280;24468;52.128;9.278;2023-04-25T11:40:03;100337.59;;;9.51;63.38
38718;BME280;24468;52.128;9.278;2023-04-25T11:42:28;100355.34;;;9.34;65.01
38718;BME280;24468;52.128;9.278;2023-04-25T11:44:55;100360.22;;;9.47;66.82
38718;BME280;24468;52.128;9.278;2023-04-25T11:47:28;100350.38;;;10.07;65.76
38718;BME280;24468;52.128;9.278;2023-04-25T11:49:53;100358.59;;;10.04;68.57
38718;BME280;24468;52.128;9.278;2023-04-25T11:52:19;100369.38;;;10.04;67.30
38718;BME280;24468;52.128;9.278;2023-04-25T11:54:44;100362.31;;;9.61;70.22
38718;BME280;24468;52.128;9.278;2023-04-25T11:57:11;100367.78;;;9.79;69.90
38718;BME280;24468;52.128;9.278;2023-04-25T11:59:37;100364.72;;;9.87;71.48
38718;BME280;24468;52.128;9.278;2023-04-25T12:02:02;100361.66;;;10.36;72.11
38718;BME280;24468;52.128;9.278;2023-04-25T12:04:30;100375.50;;;9.67;71.90
38718;BME280;24468;52.128;9.278;2023-04-25T12:06:57;100380.03;;;9.87;69.91
38718;BME280;24468;52.128;9.278;2023-04-25T12:09:33;100365.06;;;10.20;68.58
38718;BME280;24468;52.128;9.278;2023-04-25T12:12:00;100357.13;;;10.36;64.70
38718;BME280;24468;52.128;9.278;2023-04-25T12:14:34;100366.84;;;10.20;63.91
38718;BME280;24468;52.128;9.278;2023-04-25T12:17:02;100354.09;;;9.84;68.69
38718;BME280;24468;52.128;9.278;2023-04-25T12:19:36;100408.19;;;10.00;67.68
38718;BME280;24468;52.128;9.278;2023-04-25T12:22:07;100360.16;;;10.49;68.87
38718;BME280;24468;52.128;9.278;2023-04-25T12:24:45;100351.91;;;10.33;64.12
38718;BME280;24468;52.128;9.278;2023-04-25T12:27:10;100361.25;;;10.45;65.21
38718;BME280;24468;52.128;9.278;2023-04-25T12:29:36;100348.69;;;11.01;63.86
38718;BME280;24468;52.128;9.278;2023-04-25T12:32:01;100358.75;;;11.51;62.17
38718;BME280;24468;52.128;9.278;2023-04-25T12:34:27;100362.47;;;10.95;57.14
38718;BME280;24468;52.128;9.278;2023-04-25T12:36:53;100365.34;;;11.28;55.93
38718;BME280;24468;52.128;9.278;2023-04-25T12:39:21;100355.13;;;11.52;57.25
38718;BME280;24468;52.128;9.278;2023-04-25T12:41:51;100356.38;;;11.45;59.31
38718;BME280;24468;52.128;9.278;2023-04-25T12:44:20;100368.91;;;10.73;55.20
38718;BME280;24468;52.128;9.278;2023-04-25T12:46:47;100358.56;;;10.24;55.10
38718;BME280;24468;52.128;9.278;2023-04-25T12:49:12;100361.53;;;10.96;55.34
38718;BME280;24468;52.128;9.278;2023-04-25T12:51:38;100380.06;;;11.21;54.96
38718;BME280;24468;52.128;9.278;2023-04-25T12:54:05;100355.16;;;10.97;58.86
38718;BME280;24468;52.128;9.278;2023-04-25T12:56:34;100354.06;;;11.37;57.00
38718;BME280;24468;52.128;9.278;2023-04-25T12:59:00;100345.25;;;12.36;56.74
38718;BME280;24468;52.128;9.278;2023-04-25T13:01:26;100337.44;;;11.62;58.44
38718;BME280;24468;52.128;9.278;2023-04-25T13:03:52;100356.22;;;12.00;56.92